Flight Track Log - Related Links

Times and Time Zones

All times are in EDT time to prevent confusion due to time zone crossing. See the GJS3707 flight status page for this flight to view local times or setup timezone preferences in your user account.

Time Position Orientation Groundspeed Altitude Reporting Facility
EDT Latitude Longitude Course Direction KTS MPH feet Rate Location/Type
Wed 03:18:44 PM 43.5247 -116.0953 112° Southeast 215 247 6,300  Level Salt Center
Wed 03:19:46 PM 43.5047 -116.0006 106° East 252 290 8,600 2,371 Climbing Salt Center
Wed 03:20:48 PM 43.5286 -115.9044 71° East 255 293 11,200 2,274 Climbing Salt Center
Wed 03:21:00 PM 43.6772 -115.3844 83° East  Level FlightAware
Wed 03:21:50 PM 43.5475 -115.7989 76° East 270 311 13,300  Level Salt Center
Wed 03:22:00 PM 43.7017 -115.2181 81° East  Level FlightAware
Wed 03:22:52 PM 43.5661 -115.6872 77° East 283 326 15,300  Level Salt Center
Wed 03:23:00 PM 43.7207 -115.0480 81° East  Level FlightAware
Wed 03:23:54 PM 43.5861 -115.5675 77° East 329 379 16,200  Level Salt Center
Wed 03:24:56 PM 43.6100 -115.4231 77° East 365 420 17,500 1,306 Climbing Salt Center
Wed 03:25:58 PM 43.6361 -115.2664 77° East 398 458 18,900 1,355 Climbing Salt Center
Wed 03:27:00 PM 43.6608 -115.1089 78° East 413 475 20,300 1,403 Climbing Salt Center
Wed 03:28:02 PM 43.6767 -114.9264 83° East 430 495 21,800 1,403 Climbing Salt Center
Wed 03:29:04 PM 43.6889 -114.7667 84° East 436 502 23,200 1,210 Climbing Salt Center
Wed 03:30:06 PM 43.7014 -114.6044 84° East 444 511 24,300 1,306 Climbing Salt Center
Wed 03:31:08 PM 43.7156 -114.4133 84° East 449 517 25,900 1,355 Climbing Salt Center
Wed 03:32:10 PM 43.7269 -114.2494 84° East 449 517 27,100 1,152 Climbing Salt Center
Wed 03:33:13 PM 43.7397 -114.0544 85° East 455 524 28,300 1,210 Climbing Salt Center
Wed 03:34:14 PM 43.7514 -113.8883 84° East 457 526 29,600 1,220 Climbing Salt Center
Wed 03:35:16 PM 43.7644 -113.6947 85° East 455 524 30,800 1,065 Climbing Salt Center
Wed 03:36:18 PM 43.7753 -113.5278 85° East 456 525 31,800 968 Climbing Salt Center
Wed 03:37:20 PM 43.7853 -113.3314 86° East 457 526 32,800 919 Climbing Salt Center
Wed 03:38:22 PM 43.7950 -113.1636 85° East 458 527 33,700 919 Climbing Salt Center
Wed 03:39:24 PM 43.8067 -112.9692 85° East 456 525 34,700 629 Climbing Salt Center
Wed 03:40:26 PM 43.8169 -112.8008 85° East 459 528 35,000 145 Climbing Salt Center
Wed 03:41:28 PM 43.8281 -112.5969 86° East 475 547 35,000  Level Salt Center
Wed 03:42:30 PM 43.8375 -112.4178 86° East 487 560 35,000  Level Salt Center
Wed 03:43:31 PM 43.8494 -112.2067 85° East 494 568 35,000  Level Salt Center
Wed 03:44:33 PM 43.8578 -112.0242 86° East 497 572 35,000  Level Salt Center
Wed 03:45:35 PM 43.8692 -111.8144 86° East 495 570 35,000  Level Salt Center
Wed 03:46:37 PM 43.8775 -111.6328 86° East 497 572 35,000  Level Salt Center
Wed 03:47:39 PM 43.8867 -111.4206 86° East 499 574 35,000  Level Salt Center
Wed 03:48:41 PM 43.8950 -111.2403 86° East 495 570 35,000  Level Salt Center
Wed 03:49:43 PM 43.9044 -111.0292 86° East 495 570 35,000  Level Salt Center
Wed 03:50:45 PM 43.9125 -110.8456 86° East 500 575 35,000  Level Salt Center
Wed 03:51:46 PM 43.9189 -110.6633 87° East 498 573 35,000  Level Salt Center
Wed 03:52:48 PM 43.9264 -110.4503 87° East 498 573 35,000  Level Salt Center
Wed 03:53:50 PM 43.9333 -110.2692 87° East 495 570 35,000  Level Salt Center
Wed 03:54:52 PM 43.9403 -110.0556 87° East 498 573 35,000  Level Salt Center
Wed 03:55:53 PM 43.9458 -109.8728 88° East 496 571 35,000  Level Salt Center
Wed 03:56:55 PM 43.9514 -109.6578 88° East 500 575 35,000  Level Salt Center
Wed 03:57:57 PM 43.9581 -109.4750 87° East 499 574 35,000  Level Salt Center
Wed 03:58:59 PM 43.9622 -109.2703 88° East 496 571 35,000  Level Salt Center
Wed 04:00:00 PM 43.9675 -109.0867 88° East 498 573 35,000  Level Salt Center
Wed 04:01:02 PM 43.9717 -108.8714 88° East 501 577 35,000  Level Salt Center
Wed 04:02:04 PM 43.9756 -108.6878 88° East 499 574 35,000  Level Salt Center
Wed 04:03:05 PM 43.9797 -108.4744 88° East 496 571 35,000  Level Salt Center
Wed 04:04:07 PM 43.9828 -108.2908 89° East 499 574 35,000  Level Salt Center
Wed 04:05:09 PM 43.9867 -108.0761 88° East 499 574 35,000  Level Salt Center
Wed 04:06:10 PM 43.9886 -107.8917 89° East 501 577 35,000  Level Salt Center
Wed 04:07:12 PM 43.9908 -107.7053 89° East 505 581 35,000  Level Salt Center
Wed 04:08:14 PM 43.9917 -107.4944 90° East 495 570 35,000  Level Salt Center
Wed 04:09:15 PM 43.9953 -107.3086 88° East 503 579 35,000  Level Salt Center
Wed 04:10:17 PM 43.9967 -107.0903 89° East 507 583 35,000  Level Salt Center
Wed 04:10:39 PM 43.9981 -107.0283 88° East 506 582 35,000  Level Denver Center
Wed 04:11:41 PM 43.9986 -106.8392 90° East 503 579 35,000  Level Denver Center
Wed 04:12:20 PM 43.9994 -106.6892 90° East 503 579 35,000  Level Salt Center
Wed 04:12:43 PM 44.0000 -106.6217 89° East 504 580 35,000  Level Denver Center
Wed 04:13:45 PM 44.0003 -106.4350 90° East 506 582 35,000  Level Denver Center
Wed 04:14:24 PM 44.0008 -106.2842 90° East 508 585 35,000  Level Salt Center
Wed 04:15:25 PM 44.0050 -106.0886 88° East 512 589 35,000  Level Salt Center
Wed 04:15:49 PM 44.0053 -106.0264 90° East 511 588 35,000  Level Denver Center
Wed 04:16:51 PM 44.0042 -105.8094 90° East 506 582 35,000  Level Denver Center
Wed 04:17:53 PM 44.0047 -105.6222 90° East 506 582 35,000  Level Denver Center
Wed 04:18:55 PM 44.0047 -105.4047 90° East 505 581 35,000  Level Denver Center
Wed 04:19:57 PM 44.0042 -105.2172 90° East 506 582 35,000  Level Denver Center
Wed 04:20:59 PM 44.0036 -104.9972 90° East 508 585 35,000  Level Denver Center
Wed 04:22:02 PM 44.0028 -104.8106 90° East 505 581 35,000  Level Denver Center
Wed 04:23:04 PM 44.0011 -104.6242 91° East 503 579 35,000  Level Denver Center
Wed 04:24:06 PM 43.9994 -104.4044 91° East 508 585 35,000  Level Denver Center
Wed 04:25:08 PM 43.9964 -104.2172 91° East 506 582 35,000  Level Denver Center
Wed 04:26:10 PM 43.9939 -103.9989 91° East 507 583 35,000  Level Denver Center
Wed 04:27:12 PM 43.9908 -103.8122 91° East 505 581 35,000  Level Denver Center
Wed 04:28:14 PM 43.9881 -103.5931 91° East 506 582 35,000  Level Denver Center
Wed 04:29:16 PM 43.9847 -103.4058 91° East 506 582 35,000  Level Denver Center
Wed 04:30:18 PM 43.9825 -103.1928 91° East 497 572 35,000  Level Denver Center
Wed 04:31:32 PM 43.9764 -102.9758 92° East 501 577 35,000  Level Denver Center
Wed 04:32:34 PM 43.9717 -102.7825 92° East 499 574 35,000  Level Denver Center
Wed 04:33:36 PM 43.9639 -102.5894 93° East 500 575 35,000  Level Denver Center
Wed 04:34:38 PM 43.9558 -102.3594 93° East 500 575 35,000  Level Denver Center
Wed 04:35:40 PM 43.9478 -102.1667 93° East 501 577 35,000  Level Denver Center
Wed 04:36:42 PM 43.9406 -101.9753 93° East 500 575 35,000  Level Denver Center
Wed 04:37:44 PM 43.9333 -101.7839 93° East 499 574 35,000  Level Denver Center
Wed 04:38:44 PM 43.9300 -101.5964 91° East 497 572 35,000  Level Minneapolis Center
Wed 04:39:46 PM 43.9225 -101.4058 93° East 497 572 35,000  Level Minneapolis Center
Wed 04:40:50 PM 43.9153 -101.1833 93° East 491 565 35,000  Level Denver Center
Wed 04:41:52 PM 43.9072 -100.9942 93° East 494 568 35,000  Level Denver Center
Wed 04:42:52 PM 43.9006 -100.8094 93° East 489 563 35,000  Level Minneapolis Center
Wed 04:43:54 PM 43.8914 -100.6208 94° East 491 565 35,000  Level Minneapolis Center
Wed 04:44:56 PM 43.8825 -100.4311 94° East 494 568 35,000  Level Minneapolis Center
Wed 04:45:58 PM 43.8731 -100.2414 94° East 496 571 35,000  Level Minneapolis Center
Wed 04:47:00 PM 43.8619 -100.0131 94° East 496 571 35,000  Level Minneapolis Center
Wed 04:48:02 PM 43.8522 -99.8231 94° East 497 572 35,000  Level Minneapolis Center
Wed 04:49:04 PM 43.8411 -99.6347 95° East 496 571 35,000  Level Minneapolis Center
Wed 04:50:06 PM 43.8314 -99.4444 94° East 496 571 35,000  Level Minneapolis Center
Wed 04:51:08 PM 43.8211 -99.2519 94° East 502 578 35,000  Level Minneapolis Center
Wed 04:52:11 PM 43.8092 -99.0600 95° East 502 578 35,000  Level Minneapolis Center
Wed 04:53:13 PM 43.7953 -98.8281 95° East 506 582 35,000  Level Minneapolis Center
Wed 04:54:15 PM 43.7844 -98.6467 95° East 505 581 35,000  Level Minneapolis Center
Wed 04:55:17 PM 43.7711 -98.4528 95° East 507 583 35,000  Level Minneapolis Center
Wed 04:56:19 PM 43.7583 -98.2586 95° East 508 585 35,000  Level Minneapolis Center
Wed 04:57:21 PM 43.7433 -98.0267 95° East 508 585 35,000  Level Minneapolis Center
Wed 04:58:23 PM 43.7289 -97.8325 96° East 509 586 35,000  Level Minneapolis Center
Wed 04:59:25 PM 43.7156 -97.6364 95° East 514 592 35,000  Level Minneapolis Center
Wed 05:00:27 PM 43.7014 -97.4422 96° East 511 588 35,000  Level Minneapolis Center
Wed 05:01:32 PM 43.6836 -97.2069 96° East 516 594 35,000  Level Minneapolis Center
Wed 05:02:34 PM 43.6683 -97.0117 96° East 516 594 35,000  Level Minneapolis Center
Wed 05:03:36 PM 43.6525 -96.8175 96° East 514 592 35,000  Level Minneapolis Center
Wed 05:04:38 PM 43.6272 -96.6253 100° East 514 592 35,000  Level Minneapolis Center
Wed 05:05:41 PM 43.5992 -96.4333 101° East 515 593 35,000  Level Minneapolis Center
Wed 05:06:43 PM 43.5644 -96.2019 102° East 518 596 35,000  Level Minneapolis Center
Wed 05:07:45 PM 43.5361 -96.0092 101° East 517 595 35,000  Level Minneapolis Center
Wed 05:08:47 PM 43.5069 -95.8181 102° East 515 593 35,000  Level Minneapolis Center
Wed 05:09:49 PM 43.4767 -95.6258 102° East 517 595 35,000  Level Minneapolis Center
Wed 05:10:51 PM 43.4469 -95.4339 102° East 517 595 35,000  Level Minneapolis Center
Wed 05:11:53 PM 43.4108 -95.2017 102° East 519 597 35,000  Level Minneapolis Center
Wed 05:12:55 PM 43.3794 -95.0069 102° East 523 602 35,000  Level Minneapolis Center
Wed 05:13:57 PM 43.3478 -94.8139 103° East 523 602 35,000  Level Minneapolis Center
Wed 05:14:59 PM 43.3164 -94.6214 103° East 520 598 35,000  Level Minneapolis Center
Wed 05:16:01 PM 43.2839 -94.4267 103° East 523 602 35,000  Level Minneapolis Center
Wed 05:17:03 PM 43.2492 -94.2244 103° East 521 600 35,000  Level Minneapolis Center
Wed 05:18:05 PM 43.2172 -94.0278 103° East 529 609 35,000  Level Minneapolis Center
Wed 05:19:08 PM 43.1775 -93.7953 103° East 528 608 35,000  Level Minneapolis Center
Wed 05:20:10 PM 43.1431 -93.6031 104° East 526 605 35,000  Level Minneapolis Center
Wed 05:21:12 PM 43.1100 -93.4106 103° East 524 603 35,000  Level Minneapolis Center
Wed 05:22:14 PM 43.0856 -93.2136 100° East 526 605 35,000  Level Minneapolis Center
Wed 05:23:16 PM 43.0744 -93.0094 94° East 538 619 35,000  Level Minneapolis Center
Wed 05:24:18 PM 43.0572 -92.7689 96° East 535 616 35,000 -97 Level Minneapolis Center
Wed 05:25:20 PM 43.0439 -92.5653 95° East 539 620 34,800 -390 Descending Minneapolis Center
Wed 05:25:35 PM 43.0389 -92.5256 100° East 538 619 34,500 -1,065 Descending Chicago Center
Wed 05:26:22 PM 43.0278 -92.3642 95° East 537 618 33,700 -968 Descending Minneapolis Center
Wed 05:26:37 PM 43.0231 -92.3236 99° East 538 619 33,500 -935 Descending Chicago Center
Wed 05:27:39 PM 43.0089 -92.1231 95° East 535 616 32,500 -1,056 Descending Chicago Center
Wed 05:28:42 PM 42.9925 -91.8847 95° East 528 608 31,300 -720 Descending Chicago Center
Wed 05:29:44 PM 42.9783 -91.6867 96° East 521 600 31,000 -167 Descending Chicago Center
Wed 05:30:30 PM 42.9694 -91.5656 96° East 523 602 31,000  Level Minneapolis Center
Wed 05:31:33 PM 42.9481 -91.3261 97° East 524 603 31,000  Level Minneapolis Center
Wed 05:31:48 PM 42.9458 -91.2872 94° East 525 604 31,000 -234 Level Chicago Center
Wed 05:32:50 PM 42.9294 -91.0881 96° East 528 608 30,700 -677 Descending Chicago Center
Wed 05:33:52 PM 42.9142 -90.8950 96° East 517 595 29,600 -1,065 Descending Chicago Center
Wed 05:34:54 PM 42.8969 -90.7194 98° East 462 532 28,500 -1,161 Descending Chicago Center
Wed 05:35:56 PM 42.8797 -90.5183 97° East 450 518 27,200 -1,161 Descending Chicago Center
Wed 05:36:58 PM 42.8656 -90.3533 97° East 444 511 26,100 -1,016 Descending Chicago Center
Wed 05:38:00 PM 42.8486 -90.1869 98° East 445 512 25,100 -960 Descending Chicago Center
Wed 05:39:03 PM 42.8208 -90.0278 103° East 438 504 24,100 -528 Descending Chicago Center
Wed 05:40:05 PM 42.7794 -89.8742 110° East 414 476 24,000 -48 Descending Chicago Center
Wed 05:41:07 PM 42.7311 -89.7053 111° Southeast 413 475 24,000 -532 Level Chicago Center
Wed 05:42:09 PM 42.6886 -89.5581 111° Southeast 417 480 22,900 -2,032 Descending Chicago Center
Wed 05:43:11 PM 42.6478 -89.4178 112° Southeast 404 465 19,800 -2,806 Descending Chicago Center
Wed 05:44:13 PM 42.6092 -89.2817 111° Southeast 391 450 17,100 -2,565 Descending Chicago Center
Wed 05:45:15 PM 42.5653 -89.1350 112° Southeast 364 419 14,500 -1,500 Descending Chicago Center
Wed 05:46:17 PM 42.5572 -89.0153 95° East 336 387 14,000 -726 Descending Chicago Center
Wed 05:47:19 PM 42.5828 -88.8919 74° East 339 390 13,000 -968 Descending Chicago Center
Wed 05:48:21 PM 42.5706 -88.7725 98° East 334 384 12,000 -1,008 Descending Chicago Center
Wed 05:49:24 PM 42.5117 -88.6908 134° Southeast 307 353 10,900 -1,056 Descending Chicago Center
Wed 05:50:26 PM 42.4408 -88.5944 135° Southeast 308 354 9,800 -871 Descending Chicago Center
Wed 05:51:28 PM 42.3856 -88.5150 133° Southeast 296 341 9,100 -387 Descending Chicago Center
Wed 05:52:30 PM 42.3244 -88.4494 142° Southeast 300 345 9,000 -435 Descending Chicago Center
Wed 05:53:32 PM 42.2483 -88.4219 165° South 285 328 8,200 -871 Descending Chicago Center
Wed 05:54:34 PM 42.1739 -88.3911 163° South 282 325 7,200 -1,065 Descending Chicago Center
Wed 05:55:36 PM 42.0975 -88.3261 148° Southeast 273 314 6,000 -1,065 Descending Chicago Center
Wed 05:56:38 PM 42.0389 -88.2700 145° Southeast 265 305 5,000 -919 Descending Chicago Center
Wed 05:57:40 PM 41.9919 -88.2239 144° Southeast 221 254 4,100 -484 Descending Chicago Center
Wed 05:58:42 PM 41.9678 -88.1558 116° Southeast 212 244 4,000 -600 Descending Chicago Center
Wed 05:59:40 PM 41.9667 -88.0833 91° East 184 212 2,900 -1,138 Descending Chicago TRACON

Login

Don't have an account? Register now (free) for customized features, flight alerts, and more!